地図

経路データ

SID SEASON NUMBER BASIN SUBBASIN NAME ISO_TIME NATURE LAT LON WMO_WIND WMO_PRES WMO_AGENCY TRACK_TYPE DIST2LAND LANDFALL IFLAG USA_AGENCY USA_ATCF_ID USA_LAT USA_LON USA_RECORD USA_STATUS USA_WIND USA_PRES USA_SSHS USA_R34_NE USA_R34_SE USA_R34_SW USA_R34_NW USA_R50_NE USA_R50_SE USA_R50_SW USA_R50_NW USA_R64_NE USA_R64_SE USA_R64_SW USA_R64_NW USA_POCI USA_ROCI USA_RMW USA_EYE TOKYO_LAT TOKYO_LON TOKYO_GRADE TOKYO_WIND TOKYO_PRES TOKYO_R50_DIR TOKYO_R50_LONG TOKYO_R50_SHORT TOKYO_R30_DIR TOKYO_R30_LONG TOKYO_R30_SHORT TOKYO_LAND CMA_LAT CMA_LON CMA_CAT CMA_WIND CMA_PRES HKO_LAT HKO_LON HKO_CAT HKO_WIND HKO_PRES NEWDELHI_LAT NEWDELHI_LON NEWDELHI_GRADE NEWDELHI_WIND NEWDELHI_PRES NEWDELHI_CI NEWDELHI_DP NEWDELHI_POCI REUNION_LAT REUNION_LON REUNION_TYPE REUNION_WIND REUNION_PRES REUNION_TNUM REUNION_CI REUNION_RMW REUNION_R34_NE REUNION_R34_SE REUNION_R34_SW REUNION_R34_NW REUNION_R50_NE REUNION_R50_SE REUNION_R50_SW REUNION_R50_NW REUNION_R64_NE REUNION_R64_SE REUNION_R64_SW REUNION_R64_NW BOM_LAT BOM_LON BOM_TYPE BOM_WIND BOM_PRES BOM_TNUM BOM_CI BOM_RMW BOM_R34_NE BOM_R34_SE BOM_R34_SW BOM_R34_NW BOM_R50_NE BOM_R50_SE BOM_R50_SW BOM_R50_NW BOM_R64_NE BOM_R64_SE BOM_R64_SW BOM_R64_NW BOM_ROCI BOM_POCI BOM_EYE BOM_POS_METHOD BOM_PRES_METHOD NADI_LAT NADI_LON NADI_CAT NADI_WIND NADI_PRES WELLINGTON_LAT WELLINGTON_LON WELLINGTON_WIND WELLINGTON_PRES DS824_LAT DS824_LON DS824_STAGE DS824_WIND DS824_PRES TD9636_LAT TD9636_LON TD9636_STAGE TD9636_WIND TD9636_PRES TD9635_LAT TD9635_LON TD9635_WIND TD9635_PRES TD9635_ROCI NEUMANN_LAT NEUMANN_LON NEUMANN_CLASS NEUMANN_WIND NEUMANN_PRES MLC_LAT MLC_LON MLC_CLASS MLC_WIND MLC_PRES USA_GUST BOM_GUST BOM_GUST_PER REUNION_GUST REUNION_GUST_PER USA_SEAHGT USA_SEARAD_NE USA_SEARAD_SE USA_SEARAD_SW USA_SEARAD_NW STORM_SPEED STORM_DIR
1977246N27274 1977 78 NA GM BABE 1977-09-03 06:00:00 SS 26.8000 -86.3000 25 1007 hurdat_atl main 335 309 O_____________ hurdat_atl AL061977 26.8000 -86.3000 SD 25 1007 -2 11 308
1977246N27274 1977 78 NA GM BABE 1977-09-03 09:00:00 SS 27.1302 -86.7794 main 309 250 P_____________ AL061977 27.1302 -86.7794 SD 27 1006 -2 11 304
1977246N27274 1977 78 NA GM BABE 1977-09-03 12:00:00 SS 27.4000 -87.3000 30 hurdat_atl main 250 195 I_____________ hurdat_atl AL061977 27.4000 -87.3000 SD 30 1006 -2 11 294
1977246N27274 1977 78 NA GM BABE 1977-09-03 15:00:00 SS 27.5599 -87.8850 main 195 166 P_____________ AL061977 27.5599 -87.8850 SD 32 1005 -2 11 281
1977246N27274 1977 78 NA GM BABE 1977-09-03 18:00:00 SS 27.6000 -88.5000 35 1005 hurdat_atl main 166 156 O_____________ hurdat_atl AL061977 27.6000 -88.5000 SS 35 1005 -2 11 271
1977246N27274 1977 78 NA GM BABE 1977-09-03 21:00:00 SS 27.5751 -89.1299 main 156 156 P_____________ AL061977 27.5751 -89.1299 SS 35 -2 11 259
1977246N27274 1977 78 NA GM BABE 1977-09-04 00:00:00 SS 27.4000 -89.7000 35 hurdat_atl main 188 188 O_____________ hurdat_atl AL061977 27.4000 -89.7000 SS 35 -2 11 235
1977246N27274 1977 78 NA GM BABE 1977-09-04 03:00:00 SS 26.9693 -90.1008 main 234 234 P_____________ AL061977 26.9693 -90.1008 SS 37 -2 11 222
1977246N27274 1977 78 NA GM BABE 1977-09-04 06:00:00 SS 26.6000 -90.5000 40 hurdat_atl main 279 279 O_____________ hurdat_atl AL061977 26.6000 -90.5000 SS 40 -2 10 248
1977246N27274 1977 78 NA GM BABE 1977-09-04 09:00:00 SS 26.5883 -91.1590 main 280 265 P_____________ AL061977 26.5883 -91.1590 SS 42 -2 11 281
1977246N27274 1977 78 NA GM BABE 1977-09-04 12:00:00 SS 26.8000 -91.7000 45 1003 hurdat_atl main 268 240 O_____________ hurdat_atl AL061977 26.8000 -91.7000 SS 45 1003 -2 8 313
1977246N27274 1977 78 NA GM BABE 1977-09-04 15:00:00 SS 27.1271 -91.7979 main 240 195 P_____________ AL061977 27.1271 -91.7979 SS 47 1001 -2 7 0
1977246N27274 1977 78 NA GM BABE 1977-09-04 18:00:00 TS 27.5000 -91.7000 50 1000 hurdat_atl main 195 174 O_____________ hurdat_atl AL061977 27.5000 -91.7000 TS 50 1000 0 6 11
1977246N27274 1977 78 NA GM BABE 1977-09-04 21:00:00 TS 27.7500 -91.6649 main 174 140 P_____________ AL061977 27.7500 -91.6649 TS 55 998 0 5 10
1977246N27274 1977 78 NA GM BABE 1977-09-05 00:00:00 TS 28.0000 -91.6000 60 hurdat_atl main 140 106 I_____________ hurdat_atl AL061977 28.0000 -91.6000 TS 60 997 0 6 13
1977246N27274 1977 78 NA GM BABE 1977-09-05 03:00:00 TS 28.3275 -91.5075 main 106 62 P_____________ AL061977 28.3275 -91.5075 TS 62 996 0 7 14
1977246N27274 1977 78 NA GM BABE 1977-09-05 06:00:00 TS 28.7000 -91.4000 65 995 hurdat_atl main 62 22 O_____________ hurdat_atl AL061977 28.7000 -91.4000 HU 65 995 1 8 15
1977246N27274 1977 78 NA GM BABE 1977-09-05 09:00:00 TS 29.1300 -91.2554 main 22 0 P_____________ AL061977 29.1300 -91.2554 HU 65 996 1 8 13
1977246N27274 1977 78 NA NA BABE 1977-09-05 12:00:00 TS 29.5000 -91.2000 65 hurdat_atl main 0 0 I_____________ hurdat_atl AL061977 29.5000 -91.2000 HU 65 997 1 6 347
1977246N27274 1977 78 NA NA BABE 1977-09-05 15:00:00 TS 29.6802 -91.4071 main 0 0 P_____________ AL061977 29.6802 -91.4071 HU 57 998 0 5 311
1977246N27274 1977 78 NA NA BABE 1977-09-05 18:00:00 TS 29.8000 -91.6000 50 1000 hurdat_atl main 0 0 O_____________ hurdat_atl AL061977 29.8000 -91.6000 TS 50 1000 0 3 342
1977246N27274 1977 78 NA NA BABE 1977-09-05 21:00:00 TS 29.9924 -91.5251 main 0 0 P_____________ AL061977 29.9924 -91.5251 TS 40 0 5 33
1977246N27274 1977 78 NA NA BABE 1977-09-06 00:00:00 TS 30.2000 -91.3000 30 hurdat_atl main 0 0 O_____________ hurdat_atl AL061977 30.2000 -91.3000 TD 30 -1 6 47
1977246N27274 1977 78 NA NA BABE 1977-09-06 03:00:00 TS 30.3925 -91.0299 main 0 0 P_____________ AL061977 30.3925 -91.0299 TD 30 -1 7 52
1977246N27274 1977 78 NA NA BABE 1977-09-06 06:00:00 TS 30.6000 -90.7000 30 hurdat_atl main 0 0 O_____________ hurdat_atl AL061977 30.6000 -90.7000 TD 30 -1 7 53
1977246N27274 1977 78 NA NA BABE 1977-09-06 09:00:00 TS 30.8350 -90.3499 main 0 0 P_____________ AL061977 30.8350 -90.3499 TD 30 -1 8 50
1977246N27274 1977 78 NA NA BABE 1977-09-06 12:00:00 TS 31.1000 -90.0000 30 hurdat_atl main 0 0 O_____________ hurdat_atl AL061977 31.1000 -90.0000 TD 30 -1 8 46
1977246N27274 1977 78 NA NA BABE 1977-09-06 15:00:00 TS 31.3849 -89.6922 main 0 0 P_____________ AL061977 31.3849 -89.6922 TD 27 -1 8 41
1977246N27274 1977 78 NA NA BABE 1977-09-06 18:00:00 TS 31.7000 -89.4000 25 1004 hurdat_atl main 0 0 O_____________ hurdat_atl AL061977 31.7000 -89.4000 TD 25 1004 -1 8 37
1977246N27274 1977 78 NA NA BABE 1977-09-06 21:00:00 TS 32.0348 -89.1146 main 0 0 P_____________ AL061977 32.0348 -89.1146 TD 25 -1 9 36
1977246N27274 1977 78 NA NA BABE 1977-09-07 00:00:00 TS 32.4000 -88.8000 25 hurdat_atl main 0 0 O_____________ hurdat_atl AL061977 32.4000 -88.8000 TD 25 -1 10 37
1977246N27274 1977 78 NA NA BABE 1977-09-07 03:00:00 TS 32.8074 -88.4225 main 0 0 P_____________ AL061977 32.8074 -88.4225 TD 25 -1 10 40
1977246N27274 1977 78 NA NA BABE 1977-09-07 06:00:00 TS 33.2000 -88.0000 25 hurdat_atl main 0 0 O_____________ hurdat_atl AL061977 33.2000 -88.0000 TD 25 -1 10 44
1977246N27274 1977 78 NA NA BABE 1977-09-07 09:00:00 TS 33.5220 -87.5869 main 0 0 P_____________ AL061977 33.5220 -87.5869 TD 25 -1 10 51
1977246N27274 1977 78 NA NA BABE 1977-09-07 12:00:00 TS 33.8000 -87.1000 25 1008 hurdat_atl main 0 0 O_____________ hurdat_atl AL061977 33.8000 -87.1000 TD 25 1008 -1 11 59
1977246N27274 1977 78 NA NA BABE 1977-09-07 15:00:00 TS 34.0804 -86.4579 main 0 0 P_____________ AL061977 34.0804 -86.4579 TD 25 1008 -1 12 65
1977246N27274 1977 78 NA NA BABE 1977-09-07 18:00:00 TS 34.3000 -85.8000 25 hurdat_atl main 0 0 I_____________ hurdat_atl AL061977 34.3000 -85.8000 TD 25 1009 -1 10 70
1977246N27274 1977 78 NA NA BABE 1977-09-07 21:00:00 TS 34.4296 -85.2695 main 0 0 P_____________ AL061977 34.4296 -85.2695 TD 25 1009 -1 8 76
1977246N27274 1977 78 NA NA BABE 1977-09-08 00:00:00 TS 34.5000 -84.8000 25 1010 hurdat_atl main 0 0 O_____________ hurdat_atl AL061977 34.5000 -84.8000 TD 25 1010 -1 7 80
1977246N27274 1977 78 NA NA BABE 1977-09-08 03:00:00 TS 34.5569 -84.3722 main 0 0 P_____________ AL061977 34.5569 -84.3722 TD 25 -1 7 82
1977246N27274 1977 78 NA NA BABE 1977-09-08 06:00:00 TS 34.6000 -83.9000 25 hurdat_atl main 0 0 O_____________ hurdat_atl AL061977 34.6000 -83.9000 TD 25 -1 9 84
1977246N27274 1977 78 NA NA BABE 1977-09-08 09:00:00 TS 34.6501 -83.2800 main 0 0 P_____________ AL061977 34.6501 -83.2800 TD 25 -1 11 85
1977246N27274 1977 78 NA NA BABE 1977-09-08 12:00:00 TS 34.7000 -82.6000 25 hurdat_atl main 0 0 O_____________ hurdat_atl AL061977 34.7000 -82.6000 TD 25 -1 11 84
1977246N27274 1977 78 NA NA BABE 1977-09-08 15:00:00 TS 34.7574 -81.9351 main 0 0 P_____________ AL061977 34.7574 -81.9351 TD 25 -1 11 85
1977246N27274 1977 78 NA NA BABE 1977-09-08 18:00:00 TS 34.8000 -81.3000 25 hurdat_atl main 0 0 O_____________ hurdat_atl AL061977 34.8000 -81.3000 TD 25 -1 10 87
1977246N27274 1977 78 NA NA BABE 1977-09-08 21:00:00 TS 34.8103 -80.7299 main 0 0 P_____________ AL061977 34.8103 -80.7299 TD 25 -1 9 90
1977246N27274 1977 78 NA NA BABE 1977-09-09 00:00:00 TS 34.8000 -80.2000 25 1012 hurdat_atl main 0 O_____________ hurdat_atl AL061977 34.8000 -80.2000 TD 25 1012 -1 9 91

IBTrACS Databaseについて

本データベースは、米国NOAAが公開する1842年以降の世界の熱帯低気圧のベストトラックデータアーカイブInternational Best Track Archive for Climate Stewardship (IBTrACS)を、ウェブで閲覧しやすい形式に変換したものです。

最終更新日:2021-10-08